createdAt,value
2022-09-22T00:00:23.550Z,14.40
2022-09-22T00:03:11.966Z,14.50
2022-09-22T00:06:03.394Z,14.40
2022-09-22T00:08:54.419Z,14.40
2022-09-22T00:11:44.490Z,14.40
2022-09-22T00:14:32.932Z,14.40
2022-09-22T00:17:23.228Z,14.40
2022-09-22T00:20:13.866Z,14.40
2022-09-22T00:23:03.536Z,14.40
2022-09-22T00:25:51.944Z,14.30
2022-09-22T00:28:41.508Z,14.30
2022-09-22T00:31:30.350Z,14.30
2022-09-22T00:34:20.829Z,14.30
2022-09-22T00:37:09.202Z,14.30
2022-09-22T00:39:59.147Z,14.30
2022-09-22T00:42:47.529Z,14.30
2022-09-22T00:45:35.875Z,14.30
2022-09-22T00:48:25.136Z,14.30
2022-09-22T00:51:14.783Z,14.30
2022-09-22T00:54:05.028Z,14.20
2022-09-22T00:56:57.939Z,14.20
2022-09-22T00:59:46.601Z,14.20
2022-09-22T01:02:35.071Z,14.20
2022-09-22T01:05:24.511Z,14.20
2022-09-22T01:08:13.116Z,14.20
2022-09-22T01:11:01.564Z,14.20
2022-09-22T01:13:57.731Z,14.20
2022-09-22T01:16:50.608Z,14.10
2022-09-22T01:20:28.673Z,14.10
2022-09-22T01:23:48.490Z,14.10
2022-09-22T01:26:59.234Z,14.10
2022-09-22T01:30:26.418Z,14.10
2022-09-22T01:33:31.626Z,14.10
2022-09-22T01:36:24.994Z,14.10
2022-09-22T01:39:15.937Z,14.00
2022-09-22T01:42:06.846Z,14.00
2022-09-22T01:44:57.006Z,14.00
2022-09-22T01:47:48.721Z,14.00
2022-09-22T01:50:40.581Z,13.90
2022-09-22T01:53:32.048Z,13.90
2022-09-22T01:56:20.723Z,13.90
2022-09-22T01:59:09.190Z,13.90
2022-09-22T02:02:00.021Z,13.90
2022-09-22T02:04:53.257Z,13.80
2022-09-22T02:07:43.498Z,13.80
2022-09-22T02:10:33.795Z,13.80
2022-09-22T02:13:22.155Z,13.90
2022-09-22T02:16:11.725Z,13.90
2022-09-22T02:19:12.538Z,13.90
2022-09-22T02:22:02.956Z,13.90
2022-09-22T02:24:51.700Z,13.90
2022-09-22T02:27:40.096Z,13.90
2022-09-22T02:30:28.558Z,13.90
2022-09-22T02:33:17.004Z,13.90
2022-09-22T02:36:13.934Z,13.90
2022-09-22T02:39:09.768Z,13.90
2022-09-22T02:42:16.712Z,13.90
2022-09-22T02:45:10.410Z,13.90
2022-09-22T02:48:00.384Z,13.80
2022-09-22T02:50:48.767Z,13.80
2022-09-22T02:53:37.324Z,13.80
2022-09-22T02:56:27.176Z,13.70
2022-09-22T02:59:15.614Z,13.70
2022-09-22T03:02:04.102Z,13.60
2022-09-22T03:04:52.624Z,13.60
2022-09-22T03:07:41.051Z,13.50
2022-09-22T03:10:29.497Z,13.50
2022-09-22T03:13:19.257Z,13.40
2022-09-22T03:16:07.795Z,13.30
2022-09-22T03:18:57.409Z,13.30
2022-09-22T03:21:45.818Z,13.30
2022-09-22T03:24:34.242Z,13.20
2022-09-22T03:27:22.679Z,13.20
2022-09-22T03:30:13.837Z,13.20
2022-09-22T03:33:02.442Z,13.10
2022-09-22T03:35:50.819Z,13.10
2022-09-22T03:38:39.195Z,13.10
2022-09-22T03:41:27.614Z,13.00
2022-09-22T03:44:16.035Z,13.00
2022-09-22T03:47:06.204Z,13.00
2022-09-22T03:49:54.620Z,13.00
2022-09-22T03:52:44.926Z,12.90
2022-09-22T03:55:34.516Z,12.90
2022-09-22T03:58:22.931Z,12.90
2022-09-22T04:01:11.668Z,12.90
2022-09-22T04:04:01.518Z,12.90
2022-09-22T04:06:50.009Z,12.90
2022-09-22T04:09:38.461Z,12.80
2022-09-22T04:12:26.892Z,12.80
2022-09-22T04:15:15.426Z,12.80
2022-09-22T04:18:03.849Z,12.80
2022-09-22T04:20:57.953Z,12.80
2022-09-22T04:23:46.440Z,12.80
2022-09-22T04:26:34.873Z,12.80
2022-09-22T04:29:23.301Z,12.70
2022-09-22T04:32:11.693Z,12.70
2022-09-22T04:35:00.130Z,12.70
2022-09-22T04:37:50.860Z,12.60
2022-09-22T04:40:39.502Z,12.60
2022-09-22T04:43:27.987Z,12.50
2022-09-22T04:46:16.519Z,12.40
2022-09-22T04:49:04.987Z,12.30
2022-09-22T04:51:53.501Z,12.30
2022-09-22T04:54:43.260Z,12.30
2022-09-22T04:57:31.821Z,12.20
2022-09-22T05:00:21.550Z,12.20
2022-09-22T05:03:10.335Z,12.10
2022-09-22T05:05:58.829Z,12.10
2022-09-22T05:08:47.218Z,12.00
2022-09-22T05:11:37.085Z,12.00
2022-09-22T05:14:26.487Z,11.90
2022-09-22T05:17:15.063Z,11.90
2022-09-22T05:20:04.567Z,11.90
2022-09-22T05:22:54.681Z,11.90
2022-09-22T05:25:44.048Z,11.80
2022-09-22T05:28:33.802Z,11.80
2022-09-22T05:31:22.327Z,11.80
2022-09-22T05:34:10.836Z,11.80
2022-09-22T05:36:59.447Z,11.80
2022-09-22T05:39:47.799Z,11.80
2022-09-22T05:42:40.437Z,11.80
2022-09-22T05:45:30.342Z,11.80
2022-09-22T05:48:18.764Z,11.80
2022-09-22T05:51:07.147Z,11.80
2022-09-22T05:53:55.760Z,11.90
2022-09-22T05:56:44.217Z,11.90
2022-09-22T05:59:32.658Z,11.90
2022-09-22T06:02:26.148Z,11.90
2022-09-22T06:04:55.715Z,12.00
2022-09-22T06:07:24.243Z,12.10
2022-09-22T06:09:52.569Z,12.40
2022-09-22T06:12:20.747Z,12.70
2022-09-22T06:14:48.861Z,13.10
2022-09-22T06:17:17.223Z,13.60
2022-09-22T06:19:49.807Z,14.10
2022-09-22T06:22:18.302Z,14.70
2022-09-22T06:24:46.567Z,15.20
2022-09-22T06:27:14.681Z,15.70
2022-09-22T06:29:42.872Z,16.20
2022-09-22T06:32:11.295Z,16.60
2022-09-22T06:34:39.534Z,16.90
2022-09-22T06:37:10.875Z,17.30
2022-09-22T06:39:38.981Z,17.60
2022-09-22T06:42:07.352Z,18.00
2022-09-22T06:44:36.039Z,18.30
2022-09-22T06:47:06.204Z,18.60
2022-09-22T06:49:34.553Z,18.90
2022-09-22T06:52:03.720Z,19.20
2022-09-22T06:54:34.531Z,19.40
2022-09-22T06:57:03.240Z,19.60
2022-09-22T06:59:31.404Z,19.90
2022-09-22T07:01:59.685Z,20.10
2022-09-22T07:04:27.864Z,20.30
2022-09-22T07:06:55.916Z,20.40
2022-09-22T07:09:24.177Z,20.50
2022-09-22T07:11:53.965Z,20.60
2022-09-22T07:14:22.340Z,20.60
2022-09-22T07:16:52.438Z,20.60
2022-09-22T07:19:20.777Z,20.40
2022-09-22T07:21:48.937Z,20.30
2022-09-22T07:24:17.101Z,20.20
2022-09-22T07:26:46.510Z,20.10
2022-09-22T07:29:16.766Z,20.10
2022-09-22T07:31:44.877Z,20.10
2022-09-22T07:34:14.037Z,20.10
2022-09-22T07:36:42.232Z,20.10
2022-09-22T07:39:11.493Z,20.20
2022-09-22T07:41:43.542Z,20.20
2022-09-22T07:44:30.935Z,20.30
2022-09-22T07:47:00.516Z,20.40
2022-09-22T07:49:28.843Z,20.40
2022-09-22T07:51:57.613Z,20.50
2022-09-22T07:54:26.639Z,20.60
2022-09-22T07:56:58.361Z,20.70
2022-09-22T07:59:27.512Z,20.80
2022-09-22T08:01:55.940Z,20.80
2022-09-22T08:04:26.390Z,20.70
2022-09-22T08:06:56.260Z,20.70
2022-09-22T08:09:25.140Z,20.70
2022-09-22T08:11:53.559Z,20.70
2022-09-22T08:14:22.263Z,20.70
2022-09-22T08:16:51.649Z,20.70
2022-09-22T08:19:20.055Z,20.70
2022-09-22T08:21:51.515Z,20.80
2022-09-22T08:24:21.534Z,20.80
2022-09-22T08:26:51.195Z,20.80
2022-09-22T08:29:19.402Z,20.80
2022-09-22T08:31:48.122Z,20.80
2022-09-22T08:34:17.515Z,20.70
2022-09-22T08:36:47.279Z,20.70
2022-09-22T08:39:18.033Z,20.70
2022-09-22T08:41:56.275Z,20.70
2022-09-22T08:44:25.997Z,20.80
2022-09-22T08:46:54.438Z,20.80
2022-09-22T08:49:43.375Z,20.70
2022-09-22T08:52:17.595Z,20.70
2022-09-22T08:54:47.041Z,20.60
2022-09-22T08:57:46.130Z,20.60
2022-09-22T09:00:15.862Z,20.50
2022-09-22T09:02:46.197Z,20.50
2022-09-22T09:06:01.449Z,20.50
2022-09-22T09:09:05.262Z,20.60
2022-09-22T09:11:55.321Z,20.80
2022-09-22T09:14:40.307Z,21.00
2022-09-22T09:17:11.682Z,21.10
2022-09-22T09:19:42.243Z,21.20
2022-09-22T09:22:17.654Z,21.40
2022-09-22T09:27:42.504Z,21.60
2022-09-22T09:30:14.406Z,21.70
2022-09-22T09:32:46.866Z,21.80
2022-09-22T09:35:15.990Z,21.90
2022-09-22T09:37:44.555Z,21.90
2022-09-22T09:40:18.303Z,21.90
2022-09-22T09:42:53.866Z,21.90
2022-09-22T09:45:24.324Z,21.80
2022-09-22T09:48:04.883Z,21.80
2022-09-22T09:50:33.189Z,21.80
2022-09-22T09:53:01.477Z,21.90
2022-09-22T09:55:29.648Z,21.90
2022-09-22T09:58:07.886Z,21.90
2022-09-22T10:00:35.984Z,21.90
2022-09-22T10:03:14.506Z,22.00
2022-09-22T10:05:43.505Z,22.10
2022-09-22T10:08:20.081Z,22.20
2022-09-22T10:10:48.549Z,22.20
2022-09-22T10:13:30.808Z,22.20
2022-09-22T10:16:21.716Z,22.10
2022-09-22T10:18:51.444Z,22.00
2022-09-22T10:21:20.803Z,22.00
2022-09-22T10:23:49.557Z,21.90
2022-09-22T10:26:23.547Z,22.00
2022-09-22T10:29:18.169Z,21.90
2022-09-22T10:32:07.703Z,21.90
2022-09-22T10:34:37.223Z,21.90
2022-09-22T10:37:08.887Z,21.90
2022-09-22T10:39:46.076Z,21.90
2022-09-22T10:42:33.415Z,22.00
2022-09-22T10:45:06.221Z,22.10
2022-09-22T10:47:51.316Z,22.20
2022-09-22T10:50:44.741Z,22.30
2022-09-22T10:53:39.976Z,22.30
2022-09-22T10:56:14.729Z,22.40
2022-09-22T10:59:01.973Z,22.40
2022-09-22T11:02:05.900Z,22.50
2022-09-22T11:04:44.735Z,22.60
2022-09-22T11:07:47.654Z,22.80
2022-09-22T11:10:42.166Z,23.00
2022-09-22T11:13:19.479Z,23.30
2022-09-22T11:16:06.581Z,23.50
2022-09-22T11:18:46.694Z,23.70
2022-09-22T11:21:23.476Z,23.80
2022-09-22T11:24:01.675Z,24.00
2022-09-22T11:26:46.043Z,24.10
2022-09-22T11:29:57.140Z,24.20
2022-09-22T11:33:04.750Z,24.30
2022-09-22T11:36:01.641Z,24.40
2022-09-22T11:38:47.214Z,24.40
2022-09-22T11:41:28.086Z,24.40
2022-09-22T11:44:23.222Z,24.40
2022-09-22T11:47:05.564Z,24.50
2022-09-22T11:49:45.533Z,24.60
2022-09-22T11:52:23.575Z,24.60
2022-09-22T11:55:23.326Z,24.50
2022-09-22T11:57:54.378Z,24.50
2022-09-22T12:00:22.723Z,24.40
2022-09-22T12:02:55.435Z,24.40
2022-09-22T12:05:26.941Z,24.30
2022-09-22T12:08:00.491Z,24.20
2022-09-22T12:10:34.570Z,24.20
2022-09-22T12:13:03.102Z,24.30
2022-09-22T12:15:35.170Z,24.30
2022-09-22T12:18:10.815Z,24.30
2022-09-22T12:20:54.618Z,24.40
2022-09-22T12:23:40.343Z,24.40
2022-09-22T12:26:10.017Z,24.50
2022-09-22T12:28:42.917Z,24.50
2022-09-22T12:31:14.098Z,24.50
2022-09-22T12:33:48.429Z,24.50
2022-09-22T12:36:17.507Z,24.50
2022-09-22T12:38:46.995Z,24.50
2022-09-22T12:41:18.666Z,24.50
2022-09-22T12:43:47.322Z,24.60
2022-09-22T12:46:24.131Z,24.70
2022-09-22T12:48:52.369Z,24.70
2022-09-22T12:51:34.061Z,24.90
2022-09-22T12:54:51.302Z,25.00
2022-09-22T12:57:30.093Z,25.10
2022-09-22T13:00:20.598Z,25.20
2022-09-22T13:02:49.819Z,25.20
2022-09-22T13:05:46.500Z,25.20
2022-09-22T13:08:25.932Z,25.20
2022-09-22T13:11:00.519Z,25.10
2022-09-22T13:13:46.730Z,25.10
2022-09-22T13:16:35.491Z,25.00
2022-09-22T13:19:04.891Z,24.90
2022-09-22T13:21:34.383Z,24.80
2022-09-22T13:24:04.946Z,24.80
2022-09-22T13:26:35.879Z,24.70
2022-09-22T13:29:10.224Z,24.70
2022-09-22T13:31:43.336Z,24.60
2022-09-22T13:34:29.069Z,24.50
2022-09-22T13:37:00.710Z,24.40
2022-09-22T13:39:31.795Z,24.30
2022-09-22T13:42:05.888Z,24.20
2022-09-22T13:44:35.420Z,24.20
2022-09-22T13:47:07.299Z,24.10
2022-09-22T13:49:40.948Z,24.10
2022-09-22T13:52:13.448Z,24.10
2022-09-22T13:54:41.545Z,24.10
2022-09-22T13:57:20.821Z,24.20
2022-09-22T13:59:49.016Z,24.20
2022-09-22T14:02:17.208Z,24.20
2022-09-22T14:04:52.382Z,24.20
2022-09-22T14:07:21.952Z,24.30
2022-09-22T14:09:50.080Z,24.30
2022-09-22T14:12:19.511Z,24.40
2022-09-22T14:14:47.574Z,24.40
2022-09-22T14:17:17.578Z,24.50
2022-09-22T14:19:47.325Z,24.50
2022-09-22T14:22:17.709Z,24.50
2022-09-22T14:24:49.478Z,24.50
2022-09-22T14:27:22.834Z,24.50
2022-09-22T14:29:52.177Z,24.60
2022-09-22T14:32:24.975Z,24.60
2022-09-22T14:34:57.415Z,24.70
2022-09-22T14:37:29.009Z,24.70
2022-09-22T14:39:59.398Z,24.80
2022-09-22T14:42:30.642Z,24.90
2022-09-22T14:45:21.014Z,24.90
2022-09-22T14:47:49.888Z,25.00
2022-09-22T14:50:20.106Z,25.00
2022-09-22T14:52:55.845Z,25.10
2022-09-22T14:55:31.542Z,25.10
2022-09-22T14:58:03.737Z,25.10
2022-09-22T15:01:00.897Z,25.20
2022-09-22T15:03:32.758Z,25.10
2022-09-22T15:06:07.407Z,25.20
2022-09-22T15:08:35.472Z,25.20
2022-09-22T15:11:03.652Z,25.20
2022-09-22T15:13:39.912Z,25.20
2022-09-22T15:16:08.281Z,25.10
2022-09-22T15:18:36.687Z,25.10
2022-09-22T15:21:10.105Z,25.10
2022-09-22T15:23:40.965Z,25.10
2022-09-22T15:26:15.701Z,25.10
2022-09-22T15:28:48.366Z,25.10
2022-09-22T15:31:26.784Z,25.00
2022-09-22T15:33:56.084Z,24.90
2022-09-22T15:36:25.578Z,24.80
2022-09-22T15:38:54.326Z,24.80
2022-09-22T15:41:22.405Z,24.70
2022-09-22T15:43:52.015Z,24.70
2022-09-22T15:46:28.077Z,24.60
2022-09-22T15:48:59.750Z,24.50
2022-09-22T15:51:27.888Z,24.50
2022-09-22T15:53:55.981Z,24.40
2022-09-22T15:56:24.360Z,24.40
2022-09-22T15:58:53.798Z,24.30
2022-09-22T16:01:22.159Z,24.30
2022-09-22T16:03:50.341Z,24.30
2022-09-22T16:06:19.244Z,24.20
2022-09-22T16:08:51.558Z,24.20
2022-09-22T16:11:29.320Z,24.20
2022-09-22T16:14:01.073Z,24.10
2022-09-22T16:16:29.483Z,24.10
2022-09-22T16:18:58.447Z,24.00
2022-09-22T16:21:29.267Z,23.90
2022-09-22T16:24:03.007Z,23.90
2022-09-22T16:26:33.363Z,23.80
2022-09-22T16:29:03.341Z,23.70
2022-09-22T16:31:31.668Z,23.60
2022-09-22T16:34:01.517Z,23.50
2022-09-22T16:36:31.539Z,23.30
2022-09-22T16:39:00.214Z,23.20
2022-09-22T16:41:29.317Z,23.00
2022-09-22T16:43:58.150Z,22.90
2022-09-22T16:46:28.522Z,22.70
2022-09-22T16:48:58.416Z,22.50
2022-09-22T16:51:26.935Z,22.40
2022-09-22T16:53:55.056Z,22.10
2022-09-22T16:56:24.427Z,22.00
2022-09-22T16:58:52.803Z,21.70
2022-09-22T17:01:20.964Z,21.50
2022-09-22T17:03:52.383Z,21.30
2022-09-22T17:06:23.019Z,21.10
2022-09-22T17:08:52.877Z,20.90
2022-09-22T17:11:21.801Z,20.70
2022-09-22T17:13:50.705Z,20.50
2022-09-22T17:16:21.713Z,20.30
2022-09-22T17:18:52.777Z,20.10
2022-09-22T17:21:22.293Z,19.90
2022-09-22T17:23:51.404Z,19.70
2022-09-22T17:26:20.146Z,19.60
2022-09-22T17:28:48.296Z,19.40
2022-09-22T17:31:16.406Z,19.20
2022-09-22T17:33:51.296Z,19.00
2022-09-22T17:36:40.354Z,18.90
2022-09-22T17:39:29.360Z,18.70
2022-09-22T17:42:18.008Z,18.60
2022-09-22T17:45:08.258Z,18.40
2022-09-22T17:48:14.224Z,18.30
2022-09-22T17:51:20.064Z,18.10
2022-09-22T17:54:35.469Z,18.00
2022-09-22T17:57:25.352Z,17.90
2022-09-22T18:00:15.233Z,17.70
2022-09-22T18:03:03.715Z,17.60
2022-09-22T18:05:53.354Z,17.50
2022-09-22T18:08:44.771Z,17.40
2022-09-22T18:11:35.337Z,17.30
2022-09-22T18:14:25.112Z,17.30
2022-09-22T18:17:13.952Z,17.20
2022-09-22T18:20:02.994Z,17.20
2022-09-22T18:22:51.364Z,17.20
2022-09-22T18:25:41.317Z,17.20
2022-09-22T18:28:31.040Z,17.20
2022-09-22T18:31:19.419Z,17.20
2022-09-22T18:34:08.322Z,17.20
2022-09-22T18:36:58.046Z,17.20
2022-09-22T18:39:46.555Z,17.20
2022-09-22T18:42:36.531Z,17.20
2022-09-22T18:45:27.005Z,17.30
2022-09-22T18:48:17.276Z,17.30
2022-09-22T18:51:06.384Z,17.30
2022-09-22T18:53:56.704Z,17.30
2022-09-22T18:56:46.510Z,17.30
2022-09-22T18:59:34.899Z,17.30
2022-09-22T19:02:24.835Z,17.30
2022-09-22T19:05:13.317Z,17.30
2022-09-22T19:08:02.047Z,17.30
2022-09-22T19:10:50.859Z,17.30
2022-09-22T19:13:39.496Z,17.30
2022-09-22T19:16:27.911Z,17.30
2022-09-22T19:19:17.982Z,17.30
2022-09-22T19:22:08.777Z,17.30
2022-09-22T19:24:57.525Z,17.20
2022-09-22T19:27:46.459Z,17.20
2022-09-22T19:30:35.002Z,17.20
2022-09-22T19:33:23.471Z,17.30
2022-09-22T19:36:13.223Z,17.20
2022-09-22T19:39:01.780Z,17.20
2022-09-22T19:41:50.495Z,17.20
2022-09-22T19:44:40.091Z,17.20
2022-09-22T19:47:28.533Z,17.20
2022-09-22T19:50:17.047Z,17.20
2022-09-22T19:53:06.767Z,17.20
2022-09-22T19:55:55.116Z,17.10
2022-09-22T19:58:44.913Z,17.10
2022-09-22T20:01:35.377Z,17.10
2022-09-22T20:04:23.826Z,17.10
2022-09-22T20:07:12.245Z,17.10
2022-09-22T20:10:02.832Z,17.10
2022-09-22T20:12:51.395Z,17.10
2022-09-22T20:15:39.831Z,17.10
2022-09-22T20:18:29.704Z,17.00
2022-09-22T20:21:18.281Z,17.00
2022-09-22T20:24:07.793Z,16.90
2022-09-22T20:26:57.623Z,16.90
2022-09-22T20:29:45.995Z,16.90
2022-09-22T20:32:34.510Z,16.80
2022-09-22T20:35:23.082Z,16.80
2022-09-22T20:38:11.814Z,16.80
2022-09-22T20:41:02.582Z,16.80
2022-09-22T20:43:52.329Z,16.80
2022-09-22T20:46:40.876Z,16.80
2022-09-22T20:49:29.350Z,16.70
2022-09-22T20:52:19.664Z,16.70
2022-09-22T20:55:09.267Z,16.70
2022-09-22T20:57:57.988Z,16.70
2022-09-22T21:00:50.534Z,16.60
2022-09-22T21:03:39.143Z,16.60
2022-09-22T21:06:27.553Z,16.60
2022-09-22T21:09:33.575Z,16.60
2022-09-22T21:12:25.275Z,16.60
2022-09-22T21:15:17.199Z,16.60
2022-09-22T21:18:06.909Z,16.60
2022-09-22T21:20:56.754Z,16.60
2022-09-22T21:23:45.218Z,16.60
2022-09-22T21:26:33.684Z,16.60
2022-09-22T21:29:22.171Z,16.50
2022-09-22T21:32:10.547Z,16.50
2022-09-22T21:35:00.643Z,16.50
2022-09-22T21:37:49.104Z,16.50
2022-09-22T21:40:37.667Z,16.50
2022-09-22T21:43:26.191Z,16.50
2022-09-22T21:46:16.172Z,16.50
2022-09-22T21:49:06.831Z,16.40
2022-09-22T21:51:56.595Z,16.40
2022-09-22T21:54:44.970Z,16.40
2022-09-22T21:57:33.363Z,16.40
2022-09-22T22:00:36.813Z,16.30
2022-09-22T22:03:33.463Z,16.30
2022-09-22T22:06:22.848Z,16.30
2022-09-22T22:09:15.551Z,16.30
2022-09-22T22:12:04.119Z,16.30
2022-09-22T22:14:52.502Z,16.20
2022-09-22T22:17:40.919Z,16.20
2022-09-22T22:20:31.002Z,16.20
2022-09-22T22:23:19.469Z,16.10
2022-09-22T22:26:13.148Z,16.10
2022-09-22T22:29:01.490Z,16.10
2022-09-22T22:31:50.257Z,16.10
2022-09-22T22:34:38.645Z,16.10
2022-09-22T22:37:27.044Z,16.10
2022-09-22T22:40:15.549Z,16.10
2022-09-22T22:43:05.389Z,16.00
2022-09-22T22:45:53.886Z,16.00
2022-09-22T22:48:42.282Z,16.00
2022-09-22T22:51:30.832Z,16.00
2022-09-22T22:54:19.264Z,15.90
2022-09-22T22:57:07.645Z,15.90
2022-09-22T22:59:58.010Z,15.80
2022-09-22T23:02:46.402Z,15.80
2022-09-22T23:05:39.497Z,15.80
2022-09-22T23:08:30.796Z,15.80
2022-09-22T23:11:23.163Z,15.70
2022-09-22T23:14:12.707Z,15.70
2022-09-22T23:17:02.561Z,15.70
2022-09-22T23:19:50.958Z,15.60
2022-09-22T23:22:39.404Z,15.60
2022-09-22T23:25:27.836Z,15.60
2022-09-22T23:28:16.223Z,15.60
2022-09-22T23:31:08.426Z,15.60
2022-09-22T23:33:58.604Z,15.60
2022-09-22T23:36:48.307Z,15.50
2022-09-22T23:39:36.775Z,15.50
2022-09-22T23:42:25.226Z,15.50
2022-09-22T23:45:13.821Z,15.40
2022-09-22T23:48:02.727Z,15.40
2022-09-22T23:50:54.045Z,15.40
2022-09-22T23:53:42.433Z,15.40
2022-09-22T23:56:30.807Z,15.40
2022-09-22T23:59:19.156Z,15.40
